sensor_id;sensor_type;location;lat;lon;timestamp;pressure;altitude;pressure_sealevel;temperature;humidity
60087;BME280;45960;53.630;55.972;2023-02-14T00:00:04;100501.41;;;-5.08;81.01
60087;BME280;45960;53.630;55.972;2023-02-14T00:01:11;100507.50;;;-5.09;81.20
60087;BME280;45960;53.630;55.972;2023-02-14T00:02:12;100497.09;;;-5.09;81.26
60087;BME280;45960;53.630;55.972;2023-02-14T00:03:13;100491.88;;;-5.06;81.33
60087;BME280;45960;53.630;55.972;2023-02-14T00:04:15;100496.22;;;-4.99;81.48
60087;BME280;45960;53.630;55.972;2023-02-14T00:05:17;100484.06;;;-5.00;81.38
60087;BME280;45960;53.630;55.972;2023-02-14T00:06:18;100493.66;;;-4.90;81.13
60087;BME280;45960;53.630;55.972;2023-02-14T00:07:19;100495.38;;;-4.86;81.05
60087;BME280;45960;53.630;55.972;2023-02-14T00:08:20;100495.38;;;-4.83;80.88
60087;BME280;45960;53.630;55.972;2023-02-14T00:09:21;100488.44;;;-4.81;80.89
60087;BME280;45960;53.630;55.972;2023-02-14T00:10:23;100489.28;;;-4.77;80.82
60087;BME280;45960;53.630;55.972;2023-02-14T00:11:24;100491.03;;;-4.75;80.67
60087;BME280;45960;53.630;55.972;2023-02-14T00:12:25;100493.66;;;-4.75;80.66
60087;BME280;45960;53.630;55.972;2023-02-14T00:13:26;100488.44;;;-4.78;80.38
60087;BME280;45960;53.630;55.972;2023-02-14T00:14:27;100486.72;;;-4.79;80.32
60087;BME280;45960;53.630;55.972;2023-02-14T00:15:47;100490.16;;;-4.80;80.51
60087;BME280;45960;53.630;55.972;2023-02-14T00:16:48;100491.91;;;-4.79;80.52
60087;BME280;45960;53.630;55.972;2023-02-14T00:17:51;100489.28;;;-4.77;80.50
60087;BME280;45960;53.630;55.972;2023-02-14T00:18:54;100494.50;;;-4.77;80.19
60087;BME280;45960;53.630;55.972;2023-02-14T00:20:04;100488.41;;;-4.79;80.52
60087;BME280;45960;53.630;55.972;2023-02-14T00:21:06;100484.94;;;-4.80;80.26
60087;BME280;45960;53.630;55.972;2023-02-14T00:22:07;100488.44;;;-4.78;80.18
60087;BME280;45960;53.630;55.972;2023-02-14T00:23:08;100483.22;;;-4.78;80.36
60087;BME280;45960;53.630;55.972;2023-02-14T00:24:20;100488.44;;;-4.78;80.26
60087;BME280;45960;53.630;55.972;2023-02-14T00:25:22;100488.44;;;-4.78;80.25
60087;BME280;45960;53.630;55.972;2023-02-14T00:26:23;100482.34;;;-4.77;80.29
60087;BME280;45960;53.630;55.972;2023-02-14T00:27:24;100480.59;;;-4.79;80.04
60087;BME280;45960;53.630;55.972;2023-02-14T00:28:25;100487.56;;;-4.74;80.19
60087;BME280;45960;53.630;55.972;2023-02-14T00:29:28;100477.16;;;-4.78;80.04
60087;BME280;45960;53.630;55.972;2023-02-14T00:30:30;100486.69;;;-4.69;80.23
60087;BME280;45960;53.630;55.972;2023-02-14T00:31:31;100491.91;;;-4.66;79.95
60087;BME280;45960;53.630;55.972;2023-02-14T00:32:32;100487.56;;;-4.60;80.00
60087;BME280;45960;53.630;55.972;2023-02-14T00:33:33;100479.75;;;-4.58;80.04
60087;BME280;45960;53.630;55.972;2023-02-14T00:34:34;100483.22;;;-4.56;79.82
60087;BME280;45960;53.630;55.972;2023-02-14T00:35:37;100484.94;;;-4.52;79.95
60087;BME280;45960;53.630;55.972;2023-02-14T00:36:38;100481.47;;;-4.54;79.90
60087;BME280;45960;53.630;55.972;2023-02-14T00:37:39;100483.22;;;-4.50;79.75
60087;BME280;45960;53.630;55.972;2023-02-14T00:38:40;100481.50;;;-4.48;79.76
60087;BME280;45960;53.630;55.972;2023-02-14T00:39:42;100482.34;;;-4.51;79.57
60087;BME280;45960;53.630;55.972;2023-02-14T00:40:43;100475.41;;;-4.53;79.64
60087;BME280;45960;53.630;55.972;2023-02-14T00:41:44;100472.78;;;-4.53;79.78
60087;BME280;45960;53.630;55.972;2023-02-14T00:42:45;100476.25;;;-4.54;79.55
60087;BME280;45960;53.630;55.972;2023-02-14T00:43:50;100477.13;;;-4.55;79.70
60087;BME280;45960;53.630;55.972;2023-02-14T00:44:51;100474.53;;;-4.58;79.80
60087;BME280;45960;53.630;55.972;2023-02-14T00:45:54;100477.13;;;-4.60;80.00
60087;BME280;45960;53.630;55.972;2023-02-14T00:46:55;100477.13;;;-4.58;79.90
60087;BME280;45960;53.630;55.972;2023-02-14T00:47:57;100477.13;;;-4.57;79.89
60087;BME280;45960;53.630;55.972;2023-02-14T00:48:58;100471.06;;;-4.56;79.92
60087;BME280;45960;53.630;55.972;2023-02-14T00:49:59;100476.25;;;-4.57;79.79
60087;BME280;45960;53.630;55.972;2023-02-14T00:51:05;100478.03;;;-4.59;79.82
60087;BME280;45960;53.630;55.972;2023-02-14T00:52:06;100467.56;;;-4.62;79.73
60087;BME280;45960;53.630;55.972;2023-02-14T00:53:07;100464.13;;;-4.67;79.94
60087;BME280;45960;53.630;55.972;2023-02-14T00:54:08;100463.25;;;-4.69;80.01
60087;BME280;45960;53.630;55.972;2023-02-14T00:55:09;100471.06;;;-4.76;80.15
60087;BME280;45960;53.630;55.972;2023-02-14T00:56:11;100476.28;;;-4.79;80.34
60087;BME280;45960;53.630;55.972;2023-02-14T00:57:12;100458.88;;;-4.86;80.30
60087;BME280;45960;53.630;55.972;2023-02-14T00:58:13;100462.38;;;-4.81;80.54
60087;BME280;45960;53.630;55.972;2023-02-14T00:59:14;100465.84;;;-4.80;80.35
60087;BME280;45960;53.630;55.972;2023-02-14T01:00:16;100469.31;;;-4.80;80.43
60087;BME280;45960;53.630;55.972;2023-02-14T01:01:18;100470.19;;;-4.78;80.28
60087;BME280;45960;53.630;55.972;2023-02-14T01:02:19;100459.75;;;-4.78;80.36
60087;BME280;45960;53.630;55.972;2023-02-14T01:03:20;100471.06;;;-4.76;80.39
60087;BME280;45960;53.630;55.972;2023-02-14T01:04:22;100471.06;;;-4.73;80.24
60087;BME280;45960;53.630;55.972;2023-02-14T01:05:23;100467.56;;;-4.72;80.30
60087;BME280;45960;53.630;55.972;2023-02-14T01:06:24;100464.97;;;-4.75;80.26
60087;BME280;45960;53.630;55.972;2023-02-14T01:07:25;100470.16;;;-4.76;80.29
60087;BME280;45960;53.630;55.972;2023-02-14T01:08:26;100464.09;;;-4.80;80.13
60087;BME280;45960;53.630;55.972;2023-02-14T01:09:27;100465.84;;;-4.73;80.33
60087;BME280;45960;53.630;55.972;2023-02-14T01:10:28;100469.31;;;-4.77;80.22
60087;BME280;45960;53.630;55.972;2023-02-14T01:11:32;100464.09;;;-4.80;80.44
60087;BME280;45960;53.630;55.972;2023-02-14T01:12:33;100464.09;;;-4.86;80.58
60087;BME280;45960;53.630;55.972;2023-02-14T01:13:35;100470.19;;;-4.85;80.54
60087;BME280;45960;53.630;55.972;2023-02-14T01:14:36;100459.78;;;-4.90;80.67
60087;BME280;45960;53.630;55.972;2023-02-14T01:15:43;100464.09;;;-4.89;80.62
60087;BME280;45960;53.630;55.972;2023-02-14T01:16:45;100467.59;;;-4.87;80.71
60087;BME280;45960;53.630;55.972;2023-02-14T01:17:46;100460.63;;;-4.85;80.71
60087;BME280;45960;53.630;55.972;2023-02-14T01:21:21;100465.84;;;-4.97;80.68
60087;BME280;45960;53.630;55.972;2023-02-14T01:22:22;100476.25;;;-4.97;80.81
60087;BME280;45960;53.630;55.972;2023-02-14T01:23:25;100465.84;;;-5.00;80.66
60087;BME280;45960;53.630;55.972;2023-02-14T01:24:27;100464.09;;;-4.98;80.54
60087;BME280;45960;53.630;55.972;2023-02-14T01:25:28;100461.47;;;-4.97;80.36
60087;BME280;45960;53.630;55.972;2023-02-14T01:26:29;100460.63;;;-4.94;80.31
60087;BME280;45960;53.630;55.972;2023-02-14T01:27:31;100463.25;;;-4.92;80.33
60087;BME280;45960;53.630;55.972;2023-02-14T01:28:32;100460.63;;;-4.94;80.16
60087;BME280;45960;53.630;55.972;2023-02-14T01:29:35;100459.75;;;-4.96;80.19
60087;BME280;45960;53.630;55.972;2023-02-14T01:30:36;100450.19;;;-4.97;80.22
60087;BME280;45960;53.630;55.972;2023-02-14T01:31:37;100451.91;;;-4.99;80.32
60087;BME280;45960;53.630;55.972;2023-02-14T01:32:38;100460.63;;;-5.03;80.51
60087;BME280;45960;53.630;55.972;2023-02-14T01:33:41;100461.47;;;-5.06;80.37
60087;BME280;45960;53.630;55.972;2023-02-14T01:34:42;100457.13;;;-5.05;80.62
60087;BME280;45960;53.630;55.972;2023-02-14T01:35:43;100454.53;;;-5.05;80.63
60087;BME280;45960;53.630;55.972;2023-02-14T01:36:44;100457.13;;;-4.99;80.55
60087;BME280;45960;53.630;55.972;2023-02-14T01:37:46;100451.06;;;-5.00;80.58
60087;BME280;45960;53.630;55.972;2023-02-14T01:38:50;100455.41;;;-5.00;80.41
60087;BME280;45960;53.630;55.972;2023-02-14T01:39:51;100451.91;;;-5.02;80.67
60087;BME280;45960;53.630;55.972;2023-02-14T01:40:52;100445.84;;;-5.03;80.25
60087;BME280;45960;53.630;55.972;2023-02-14T01:41:53;100453.69;;;-5.01;80.38
60087;BME280;45960;53.630;55.972;2023-02-14T01:42:55;100445.00;;;-5.03;80.27
60087;BME280;45960;53.630;55.972;2023-02-14T01:44:00;100441.50;;;-5.05;80.20
60087;BME280;45960;53.630;55.972;2023-02-14T01:45:15;100452.81;;;-5.09;80.00
60087;BME280;45960;53.630;55.972;2023-02-14T01:46:17;100449.31;;;-5.08;80.40
60087;BME280;45960;53.630;55.972;2023-02-14T01:47:18;100453.66;;;-5.07;80.46
60087;BME280;45960;53.630;55.972;2023-02-14T01:48:21;100433.66;;;-5.13;80.43
60087;BME280;45960;53.630;55.972;2023-02-14T01:49:40;100446.72;;;-5.08;80.33
60087;BME280;45960;53.630;55.972;2023-02-14T01:50:46;100446.72;;;-5.11;80.35
60087;BME280;45960;53.630;55.972;2023-02-14T01:52:42;100446.72;;;-5.18;80.42
60087;BME280;45960;53.630;55.972;2023-02-14T01:53:27;100446.72;;;-5.18;80.34
60087;BME280;45960;53.630;55.972;2023-02-14T01:54:33;100438.03;;;-5.13;80.74
60087;BME280;45960;53.630;55.972;2023-02-14T01:55:38;100438.91;;;-5.08;80.41
60087;BME280;45960;53.630;55.972;2023-02-14T01:56:44;100438.03;;;-5.04;80.20
60087;BME280;45960;53.630;55.972;2023-02-14T01:57:52;100440.63;;;-5.00;80.17
60087;BME280;45960;53.630;55.972;2023-02-14T01:58:57;100431.97;;;-5.00;80.20
60087;BME280;45960;53.630;55.972;2023-02-14T02:00:01;100441.50;;;-4.96;79.73
60087;BME280;45960;53.630;55.972;2023-02-14T02:01:21;100437.16;;;-5.06;79.76
60087;BME280;45960;53.630;55.972;2023-02-14T02:02:23;100443.22;;;-5.13;80.02
60087;BME280;45960;53.630;55.972;2023-02-14T02:04:31;100436.28;;;-5.24;80.18
60087;BME280;45960;53.630;55.972;2023-02-14T02:05:41;100429.31;;;-5.25;80.13
60087;BME280;45960;53.630;55.972;2023-02-14T02:06:50;100439.75;;;-5.28;80.04
60087;BME280;45960;53.630;55.972;2023-02-14T02:07:56;100441.47;;;-5.33;80.20
60087;BME280;45960;53.630;55.972;2023-02-14T02:09:17;100435.38;;;-5.40;80.42
60087;BME280;45960;53.630;55.972;2023-02-14T02:10:20;100437.97;;;-5.47;80.65
60087;BME280;45960;53.630;55.972;2023-02-14T02:11:24;100441.44;;;-5.45;80.62
60087;BME280;45960;53.630;55.972;2023-02-14T02:12:25;100440.59;;;-5.40;80.55
60087;BME280;45960;53.630;55.972;2023-02-14T02:13:27;100431.03;;;-5.39;80.48
60087;BME280;45960;53.630;55.972;2023-02-14T02:14:31;100429.31;;;-5.40;80.31
60087;BME280;45960;53.630;55.972;2023-02-14T02:15:40;100439.72;;;-5.40;80.32
60087;BME280;45960;53.630;55.972;2023-02-14T02:45:19;100418.84;;;-5.49;79.41
60087;BME280;45960;53.630;55.972;2023-02-14T02:46:31;100419.75;;;-5.49;79.42
60087;BME280;45960;53.630;55.972;2023-02-14T02:48:00;100415.41;;;-5.48;79.15
60087;BME280;45960;53.630;55.972;2023-02-14T02:50:48;100415.41;;;-5.42;78.72
60087;BME280;45960;53.630;55.972;2023-02-14T02:54:19;100414.53;;;-5.38;78.55
60087;BME280;45960;53.630;55.972;2023-02-14T02:55:30;100413.69;;;-5.34;78.54
60087;BME280;45960;53.630;55.972;2023-02-14T02:56:57;100414.56;;;-5.29;78.29
60087;BME280;45960;53.630;55.972;2023-02-14T02:58:00;100414.56;;;-5.26;78.23
60087;BME280;45960;53.630;55.972;2023-02-14T03:00:20;100411.97;;;-5.20;77.77
60087;BME280;45960;53.630;55.972;2023-02-14T03:01:25;100413.69;;;-5.15;78.21
60087;BME280;45960;53.630;55.972;2023-02-14T03:02:33;100403.28;;;-5.15;78.14
60087;BME280;45960;53.630;55.972;2023-02-14T03:03:59;100409.38;;;-5.13;78.08
60087;BME280;45960;53.630;55.972;2023-02-14T03:05:19;100411.09;;;-5.15;78.28
60087;BME280;45960;53.630;55.972;2023-02-14T03:06:21;100405.03;;;-5.24;78.05
60087;BME280;45960;53.630;55.972;2023-02-14T03:07:42;100407.63;;;-5.28;78.25
60087;BME280;45960;53.630;55.972;2023-02-14T03:08:46;100411.09;;;-5.31;78.45
60087;BME280;45960;53.630;55.972;2023-02-14T03:09:50;100411.97;;;-5.29;78.37
60087;BME280;45960;53.630;55.972;2023-02-14T03:10:53;100418.91;;;-5.28;78.54
60087;BME280;45960;53.630;55.972;2023-02-14T03:14:49;100411.06;;;-5.35;78.82
60087;BME280;45960;53.630;55.972;2023-02-14T03:17:32;100418.91;;;-5.37;79.11
60087;BME280;45960;53.630;55.972;2023-02-14T03:19:35;100416.28;;;-5.34;79.07
60087;BME280;45960;53.630;55.972;2023-02-14T03:20:22;100419.78;;;-5.32;78.79
60087;BME280;45960;53.630;55.972;2023-02-14T03:21:30;100413.69;;;-5.28;78.76
60087;BME280;45960;53.630;55.972;2023-02-14T03:25:42;100405.00;;;-5.27;78.53
60087;BME280;45960;53.630;55.972;2023-02-14T03:26:54;100411.09;;;-5.25;78.42
60087;BME280;45960;53.630;55.972;2023-02-14T03:28:15;100415.41;;;-5.27;78.18
60087;BME280;45960;53.630;55.972;2023-02-14T03:29:50;100418.91;;;-5.28;78.70
60087;BME280;45960;53.630;55.972;2023-02-14T03:31:08;100410.22;;;-5.27;78.53
60087;BME280;45960;53.630;55.972;2023-02-14T03:32:17;100409.34;;;-5.27;78.23
60087;BME280;45960;53.630;55.972;2023-02-14T03:33:35;100409.38;;;-5.32;78.48
60087;BME280;45960;53.630;55.972;2023-02-14T03:36:11;100405.00;;;-5.30;78.66
60087;BME280;45960;53.630;55.972;2023-02-14T03:37:25;100403.28;;;-5.31;78.54
60087;BME280;45960;53.630;55.972;2023-02-14T03:39:58;100413.69;;;-5.31;78.80
60087;BME280;45960;53.630;55.972;2023-02-14T03:41:09;100400.69;;;-5.26;78.63
60087;BME280;45960;53.630;55.972;2023-02-14T03:42:20;100405.03;;;-5.21;78.60
60087;BME280;45960;53.630;55.972;2023-02-14T03:43:24;100410.22;;;-5.16;78.56
60087;BME280;45960;53.630;55.972;2023-02-14T03:44:29;100401.56;;;-5.10;78.49
60087;BME280;45960;53.630;55.972;2023-02-14T03:45:38;100406.75;;;-5.10;78.58
60087;BME280;45960;53.630;55.972;2023-02-14T03:46:52;100408.50;;;-5.06;78.30
60087;BME280;45960;53.630;55.972;2023-02-14T03:48:01;100406.75;;;-5.04;78.45
60087;BME280;45960;53.630;55.972;2023-02-14T03:49:09;100405.91;;;-5.08;78.60
60087;BME280;45960;53.630;55.972;2023-02-14T03:50:18;100406.75;;;-5.07;78.50
60087;BME280;45960;53.630;55.972;2023-02-14T03:51:21;100399.81;;;-5.05;78.62
60087;BME280;45960;53.630;55.972;2023-02-14T03:52:24;100408.50;;;-5.06;78.66
60087;BME280;45960;53.630;55.972;2023-02-14T03:53:30;100405.03;;;-5.05;78.81
60087;BME280;45960;53.630;55.972;2023-02-14T03:54:34;100399.81;;;-5.08;78.49
60087;BME280;45960;53.630;55.972;2023-02-14T03:55:40;100407.63;;;-5.10;78.78
60087;BME280;45960;53.630;55.972;2023-02-14T03:57:01;100402.44;;;-5.07;78.91
60087;BME280;45960;53.630;55.972;2023-02-14T03:58:22;100404.19;;;-5.01;78.97
60087;BME280;45960;53.630;55.972;2023-02-14T03:59:26;100401.56;;;-5.00;78.68
60087;BME280;45960;53.630;55.972;2023-02-14T04:00:29;100403.28;;;-4.97;78.75
60087;BME280;45960;53.630;55.972;2023-02-14T04:01:43;100412.00;;;-4.95;78.13
60087;BME280;45960;53.630;55.972;2023-02-14T04:02:49;100406.78;;;-4.92;78.47
60087;BME280;45960;53.630;55.972;2023-02-14T04:03:54;100403.31;;;-4.89;78.34
60087;BME280;45960;53.630;55.972;2023-02-14T04:04:57;100408.50;;;-4.85;78.37
60087;BME280;45960;53.630;55.972;2023-02-14T04:06:00;100409.38;;;-4.83;78.44
60087;BME280;45960;53.630;55.972;2023-02-14T04:07:16;100415.47;;;-4.81;78.13
60087;BME280;45960;53.630;55.972;2023-02-14T04:08:27;100413.72;;;-4.79;78.09
60087;BME280;45960;53.630;55.972;2023-02-14T04:09:28;100411.13;;;-4.79;77.95
60087;BME280;45960;53.630;55.972;2023-02-14T04:10:29;100412.81;;;-4.79;77.93
60087;BME280;45960;53.630;55.972;2023-02-14T04:11:32;100408.50;;;-4.74;77.97
60087;BME280;45960;53.630;55.972;2023-02-14T04:12:34;100410.22;;;-4.75;78.06
60087;BME280;45960;53.630;55.972;2023-02-14T04:13:36;100405.03;;;-4.75;78.10
60087;BME280;45960;53.630;55.972;2023-02-14T04:14:38;100405.00;;;-4.72;78.20
60087;BME280;45960;53.630;55.972;2023-02-14T04:15:39;100405.03;;;-4.75;77.91
60087;BME280;45960;53.630;55.972;2023-02-14T04:16:40;100399.81;;;-4.72;77.92
60087;BME280;45960;53.630;55.972;2023-02-14T04:18:01;100400.69;;;-4.65;78.06
60087;BME280;45960;53.630;55.972;2023-02-14T04:19:21;100399.78;;;-4.56;78.00
60087;BME280;45960;53.630;55.972;2023-02-14T04:20:22;100401.50;;;-4.49;77.85
60087;BME280;45960;53.630;55.972;2023-02-14T04:21:23;100394.53;;;-4.44;77.62
60087;BME280;45960;53.630;55.972;2023-02-14T04:22:24;100401.47;;;-4.38;77.51
60087;BME280;45960;53.630;55.972;2023-02-14T04:23:26;100398.03;;;-4.42;77.38
60087;BME280;45960;53.630;55.972;2023-02-14T04:24:27;100405.00;;;-4.50;77.50
60087;BME280;45960;53.630;55.972;2023-02-14T04:25:28;100400.66;;;-4.56;77.58
60087;BME280;45960;53.630;55.972;2023-02-14T04:26:29;100400.66;;;-4.57;77.76
60087;BME280;45960;53.630;55.972;2023-02-14T04:27:31;100399.81;;;-4.59;77.69
60087;BME280;45960;53.630;55.972;2023-02-14T04:28:32;100404.13;;;-4.55;77.83
60087;BME280;45960;53.630;55.972;2023-02-14T04:29:33;100413.69;;;-4.56;77.79
60087;BME280;45960;53.630;55.972;2023-02-14T04:30:34;100405.00;;;-4.56;77.73
60087;BME280;45960;53.630;55.972;2023-02-14T04:31:35;100402.38;;;-4.62;77.77
60087;BME280;45960;53.630;55.972;2023-02-14T04:32:37;100407.63;;;-4.61;77.78
60087;BME280;45960;53.630;55.972;2023-02-14T04:33:39;100398.06;;;-4.63;78.09
60087;BME280;45960;53.630;55.972;2023-02-14T04:34:40;100399.78;;;-4.68;78.22
60087;BME280;45960;53.630;55.972;2023-02-14T04:35:41;100402.41;;;-4.72;78.24
60087;BME280;45960;53.630;55.972;2023-02-14T04:36:43;100391.09;;;-4.70;78.33
60087;BME280;45960;53.630;55.972;2023-02-14T04:37:44;100404.16;;;-4.64;78.33
60087;BME280;45960;53.630;55.972;2023-02-14T04:38:45;100406.75;;;-4.58;78.35
60087;BME280;45960;53.630;55.972;2023-02-14T04:39:46;100399.78;;;-4.55;78.20
60087;BME280;45960;53.630;55.972;2023-02-14T04:40:48;100391.09;;;-4.58;77.90
60087;BME280;45960;53.630;55.972;2023-02-14T04:41:50;100396.31;;;-4.55;78.06
60087;BME280;45960;53.630;55.972;2023-02-14T04:42:51;100393.69;;;-4.58;78.03
60087;BME280;45960;53.630;55.972;2023-02-14T04:43:52;100391.09;;;-4.61;77.94
60087;BME280;45960;53.630;55.972;2023-02-14T04:44:53;100387.59;;;-4.57;78.08
60087;BME280;45960;53.630;55.972;2023-02-14T04:45:54;100391.06;;;-4.52;78.04
60087;BME280;45960;53.630;55.972;2023-02-14T04:46:55;100386.72;;;-4.45;78.00
60087;BME280;45960;53.630;55.972;2023-02-14T04:47:56;100388.44;;;-4.43;77.92
60087;BME280;45960;53.630;55.972;2023-02-14T04:48:57;100387.59;;;-4.39;77.90
60087;BME280;45960;53.630;55.972;2023-02-14T04:49:58;100387.56;;;-4.33;77.47
60087;BME280;45960;53.630;55.972;2023-02-14T04:50:59;100389.25;;;-4.29;77.44
60087;BME280;45960;53.630;55.972;2023-02-14T04:52:01;100386.69;;;-4.33;77.45
60087;BME280;45960;53.630;55.972;2023-02-14T04:53:03;100387.56;;;-4.36;77.08
60087;BME280;45960;53.630;55.972;2023-02-14T04:54:04;100384.97;;;-4.46;77.58
60087;BME280;45960;53.630;55.972;2023-02-14T04:55:07;100384.13;;;-4.55;77.98
60087;BME280;45960;53.630;55.972;2023-02-14T04:56:08;100381.56;;;-4.59;77.99
60087;BME280;45960;53.630;55.972;2023-02-14T04:57:09;100384.16;;;-4.56;78.29
60087;BME280;45960;53.630;55.972;2023-02-14T04:58:10;100378.06;;;-4.54;78.16
60087;BME280;45960;53.630;55.972;2023-02-14T04:59:11;100380.66;;;-4.47;78.02
60087;BME280;45960;53.630;55.972;2023-02-14T05:00:12;100378.88;;;-4.44;77.99
60087;BME280;45960;53.630;55.972;2023-02-14T05:01:14;100378.03;;;-4.44;77.81
60087;BME280;45960;53.630;55.972;2023-02-14T05:02:15;100380.63;;;-4.46;77.79
60087;BME280;45960;53.630;55.972;2023-02-14T05:03:16;100372.84;;;-4.51;77.68
60087;BME280;45960;53.630;55.972;2023-02-14T05:04:17;100374.56;;;-4.50;78.01
60087;BME280;45960;53.630;55.972;2023-02-14T05:05:18;100375.41;;;-4.43;77.65
60087;BME280;45960;53.630;55.972;2023-02-14T05:06:19;100381.47;;;-4.35;77.65
60087;BME280;45960;53.630;55.972;2023-02-14T05:07:21;100376.22;;;-4.27;77.72
60087;BME280;45960;53.630;55.972;2023-02-14T05:08:22;100367.53;;;-4.24;77.40
60087;BME280;45960;53.630;55.972;2023-02-14T05:09:23;100373.59;;;-4.18;77.17
60087;BME280;45960;53.630;55.972;2023-02-14T05:10:25;100370.09;;;-4.12;76.91
60087;BME280;45960;53.630;55.972;2023-02-14T05:11:28;100356.16;;;-4.05;76.78
60087;BME280;45960;53.630;55.972;2023-02-14T05:12:33;100366.56;;;-4.02;76.59
60087;BME280;45960;53.630;55.972;2023-02-14T05:13:38;100363.94;;;-3.94;76.57
60087;BME280;45960;53.630;55.972;2023-02-14T05:14:39;100360.47;;;-3.96;76.38
60087;BME280;45960;53.630;55.972;2023-02-14T05:15:40;100361.28;;;-3.93;76.14
60087;BME280;45960;53.630;55.972;2023-02-14T05:16:41;100359.56;;;-3.89;76.43
60087;BME280;45960;53.630;55.972;2023-02-14T05:17:43;100361.28;;;-3.84;76.38
60087;BME280;45960;53.630;55.972;2023-02-14T05:18:44;100364.75;;;-3.85;76.34
60087;BME280;45960;53.630;55.972;2023-02-14T05:19:45;100363.00;;;-3.83;76.42
60087;BME280;45960;53.630;55.972;2023-02-14T05:20:52;100360.44;;;-3.89;76.42
60087;BME280;45960;53.630;55.972;2023-02-14T05:21:54;100356.13;;;-4.00;76.68
60087;BME280;45960;53.630;55.972;2023-02-14T05:22:55;100357.03;;;-4.06;76.65
60087;BME280;45960;53.630;55.972;2023-02-14T05:23:56;100359.63;;;-4.00;77.07
60087;BME280;45960;53.630;55.972;2023-02-14T05:24:57;100368.25;;;-3.89;76.78
60087;BME280;45960;53.630;55.972;2023-02-14T05:25:58;100364.72;;;-3.82;76.61
60087;BME280;45960;53.630;55.972;2023-02-14T05:26:59;100366.44;;;-3.74;76.43
60087;BME280;45960;53.630;55.972;2023-02-14T05:28:01;100369.00;;;-3.68;76.31
60087;BME280;45960;53.630;55.972;2023-02-14T05:29:02;100357.66;;;-3.61;76.25
60087;BME280;45960;53.630;55.972;2023-02-14T05:30:03;100364.53;;;-3.51;76.23
60087;BME280;45960;53.630;55.972;2023-02-14T05:31:04;100363.63;;;-3.45;75.85
60087;BME280;45960;53.630;55.972;2023-02-14T05:32:06;100358.34;;;-3.39;75.66
60087;BME280;45960;53.630;55.972;2023-02-14T05:33:08;100362.66;;;-3.33;75.37
60087;BME280;45960;53.630;55.972;2023-02-14T05:34:09;100364.47;;;-3.35;75.29
60087;BME280;45960;53.630;55.972;2023-02-14T05:35:10;100368.81;;;-3.39;75.43
60087;BME280;45960;53.630;55.972;2023-02-14T05:36:11;100360.97;;;-3.38;75.60
60087;BME280;45960;53.630;55.972;2023-02-14T05:37:12;100362.66;;;-3.33;75.59
60087;BME280;45960;53.630;55.972;2023-02-14T05:38:14;100366.09;;;-3.25;75.49
60087;BME280;45960;53.630;55.972;2023-02-14T05:39:15;100354.72;;;-3.20;75.18
60087;BME280;45960;53.630;55.972;2023-02-14T05:40:16;100361.59;;;-3.06;75.00
60087;BME280;45960;53.630;55.972;2023-02-14T05:41:17;100362.41;;;-3.00;75.00
60087;BME280;45960;53.630;55.972;2023-02-14T05:42:18;100351.16;;;-3.05;74.83
60087;BME280;45960;53.630;55.972;2023-02-14T05:43:19;100364.22;;;-3.05;74.73
60087;BME280;45960;53.630;55.972;2023-02-14T05:44:21;100367.75;;;-3.10;74.30
60087;BME280;45960;53.630;55.972;2023-02-14T05:45:22;100362.53;;;-3.12;74.77
60087;BME280;45960;53.630;55.972;2023-02-14T05:46:23;100372.94;;;-3.09;74.93
60087;BME280;45960;53.630;55.972;2023-02-14T05:47:25;100369.50;;;-3.14;74.93
60087;BME280;45960;53.630;55.972;2023-02-14T05:48:26;100370.38;;;-3.10;74.96
60087;BME280;45960;53.630;55.972;2023-02-14T05:49:27;100350.34;;;-3.13;74.98
60087;BME280;45960;53.630;55.972;2023-02-14T05:50:28;100366.06;;;-3.16;75.07
60087;BME280;45960;53.630;55.972;2023-02-14T05:51:31;100362.53;;;-3.12;75.17
60087;BME280;45960;53.630;55.972;2023-02-14T05:52:36;100359.00;;;-3.05;75.11
60087;BME280;45960;53.630;55.972;2023-02-14T05:53:42;100358.97;;;-3.02;74.98
60087;BME280;45960;53.630;55.972;2023-02-14T05:54:44;100364.09;;;-2.93;74.94
60087;BME280;45960;53.630;55.972;2023-02-14T05:55:45;100345.81;;;-2.96;74.69
60087;BME280;45960;53.630;55.972;2023-02-14T05:56:46;100355.22;;;-2.76;74.49
60087;BME280;45960;53.630;55.972;2023-02-14T05:57:47;100359.47;;;-2.63;74.29
60087;BME280;45960;53.630;55.972;2023-02-14T05:58:49;100355.00;;;-2.52;73.85
60087;BME280;45960;53.630;55.972;2023-02-14T05:59:51;100365.47;;;-2.52;73.90
60087;BME280;45960;53.630;55.972;2023-02-14T06:00:52;100356.88;;;-2.66;74.16
60087;BME280;45960;53.630;55.972;2023-02-14T06:01:53;100362.13;;;-2.69;74.45
60087;BME280;45960;53.630;55.972;2023-02-14T06:02:54;100365.59;;;-2.67;74.50
60087;BME280;45960;53.630;55.972;2023-02-14T06:03:56;100361.19;;;-2.60;74.18
60087;BME280;45960;53.630;55.972;2023-02-14T06:04:57;100356.69;;;-2.48;73.89
60087;BME280;45960;53.630;55.972;2023-02-14T06:05:58;100363.53;;;-2.34;73.94
60087;BME280;45960;53.630;55.972;2023-02-14T06:06:59;100368.56;;;-2.19;73.29
60087;BME280;45960;53.630;55.972;2023-02-14T06:08:00;100364.97;;;-2.09;73.03
60087;BME280;45960;53.630;55.972;2023-02-14T06:09:01;100360.50;;;-2.02;72.56
60087;BME280;45960;53.630;55.972;2023-02-14T06:10:02;100366.63;;;-2.01;72.63
60087;BME280;45960;53.630;55.972;2023-02-14T06:11:04;100370.06;;;-1.99;72.74
60087;BME280;45960;53.630;55.972;2023-02-14T06:12:06;100368.34;;;-2.00;72.26
60087;BME280;45960;53.630;55.972;2023-02-14T06:13:07;100367.50;;;-2.01;72.22
60087;BME280;45960;53.630;55.972;2023-02-14T06:14:08;100370.16;;;-2.06;72.46
60087;BME280;45960;53.630;55.972;2023-02-14T06:15:10;100373.66;;;-2.07;72.41
60087;BME280;45960;53.630;55.972;2023-02-14T06:16:11;100364.97;;;-2.09;72.25
60087;BME280;45960;53.630;55.972;2023-02-14T06:17:12;100370.25;;;-2.12;72.47
60087;BME280;45960;53.630;55.972;2023-02-14T06:18:13;100370.31;;;-2.18;72.62